sensor_id;sensor_type;location;lat;lon;timestamp;pressure;altitude;pressure_sealevel;temperature;humidity
17309;BME280;8772;42.804;23.426;2023-05-20T00:00:09;73863.00;;;-140.58;100.00
17309;BME280;8772;42.804;23.426;2023-05-20T00:02:36;73854.78;;;-140.58;100.00
17309;BME280;8772;42.804;23.426;2023-05-20T00:05:03;73856.84;;;-140.58;100.00
17309;BME280;8772;42.804;23.426;2023-05-20T00:07:32;73836.31;;;-140.58;100.00
17309;BME280;8772;42.804;23.426;2023-05-20T00:09:59;73826.06;;;-140.58;100.00
17309;BME280;8772;42.804;23.426;2023-05-20T00:12:26;73834.28;;;-140.58;100.00
17309;BME280;8772;42.804;23.426;2023-05-20T00:14:52;73830.16;;;-140.58;100.00
17309;BME280;8772;42.804;23.426;2023-05-20T00:17:19;73826.06;;;-140.58;100.00
17309;BME280;8772;42.804;23.426;2023-05-20T00:19:46;73838.38;;;-140.58;100.00
17309;BME280;8772;42.804;23.426;2023-05-20T00:22:15;73842.47;;;-140.58;100.00
17309;BME280;8772;42.804;23.426;2023-05-20T00:24:43;73840.44;;;-140.58;100.00
17309;BME280;8772;42.804;23.426;2023-05-20T00:27:10;73830.16;;;-140.58;100.00
17309;BME280;8772;42.804;23.426;2023-05-20T00:29:36;73854.78;;;-140.58;100.00
17309;BME280;8772;42.804;23.426;2023-05-20T00:32:04;73850.69;;;-140.58;100.00
17309;BME280;8772;42.804;23.426;2023-05-20T00:34:31;73846.59;;;-140.58;100.00
17309;BME280;8772;42.804;23.426;2023-05-20T00:36:58;73850.69;;;-140.58;100.00
17309;BME280;8772;42.804;23.426;2023-05-20T00:39:25;73842.47;;;-140.58;100.00
17309;BME280;8772;42.804;23.426;2023-05-20T00:41:53;73854.78;;;-140.58;100.00
17309;BME280;8772;42.804;23.426;2023-05-20T00:44:21;73834.28;;;-140.58;100.00
17309;BME280;8772;42.804;23.426;2023-05-20T00:46:51;73871.19;;;-140.58;100.00
17309;BME280;8772;42.804;23.426;2023-05-20T00:49:19;73858.91;;;-140.58;100.00
17309;BME280;8772;42.804;23.426;2023-05-20T00:51:47;73865.03;;;-140.58;100.00
17309;BME280;8772;42.804;23.426;2023-05-20T00:54:14;73867.09;;;-140.58;100.00
17309;BME280;8772;42.804;23.426;2023-05-20T00:56:41;73867.09;;;-140.58;100.00
17309;BME280;8772;42.804;23.426;2023-05-20T00:59:10;73877.34;;;-140.58;100.00
17309;BME280;8772;42.804;23.426;2023-05-20T01:01:38;73875.31;;;-140.58;100.00
17309;BME280;8772;42.804;23.426;2023-05-20T01:07:27;73883.50;;;-140.58;100.00
17309;BME280;8772;42.804;23.426;2023-05-20T01:09:54;73899.91;;;-140.58;100.00
17309;BME280;8772;42.804;23.426;2023-05-20T01:12:24;73895.81;;;-140.58;100.00
17309;BME280;8772;42.804;23.426;2023-05-20T01:14:58;73897.88;;;-140.58;100.00
17309;BME280;8772;42.804;23.426;2023-05-20T01:17:27;73883.50;;;-140.58;100.00
17309;BME280;8772;42.804;23.426;2023-05-20T01:19:58;73899.91;;;-140.58;100.00
17309;BME280;8772;42.804;23.426;2023-05-20T01:22:27;73899.91;;;-140.58;100.00
17309;BME280;8772;42.804;23.426;2023-05-20T01:24:54;73924.53;;;-140.58;100.00
17309;BME280;8772;42.804;23.426;2023-05-20T01:27:22;73906.06;;;-140.58;100.00
17309;BME280;8772;42.804;23.426;2023-05-20T01:29:50;73910.19;;;-140.58;100.00
17309;BME280;8772;42.804;23.426;2023-05-20T01:32:20;73906.06;;;-140.58;100.00
17309;BME280;8772;42.804;23.426;2023-05-20T01:34:47;73916.34;;;-140.58;100.00
17309;BME280;8772;42.804;23.426;2023-05-20T01:37:16;73924.53;;;-140.58;100.00
17309;BME280;8772;42.804;23.426;2023-05-20T01:39:46;73918.38;;;-140.58;100.00
17309;BME280;8772;42.804;23.426;2023-05-20T01:42:15;73932.75;;;-140.58;100.00
17309;BME280;8772;42.804;23.426;2023-05-20T01:44:43;73918.38;;;-140.58;100.00
17309;BME280;8772;42.804;23.426;2023-05-20T01:47:10;73951.22;;;-140.58;100.00
17309;BME280;8772;42.804;23.426;2023-05-20T01:49:37;73934.81;;;-140.58;100.00
17309;BME280;8772;42.804;23.426;2023-05-20T01:52:04;73938.91;;;-140.58;100.00
17309;BME280;8772;42.804;23.426;2023-05-20T01:54:31;73914.28;;;-140.58;100.00
17309;BME280;8772;42.804;23.426;2023-05-20T01:56:59;73940.94;;;-140.58;100.00
17309;BME280;8772;42.804;23.426;2023-05-20T01:59:27;73940.94;;;-140.58;100.00
17309;BME280;8772;42.804;23.426;2023-05-20T02:01:54;73949.16;;;-140.58;100.00
17309;BME280;8772;42.804;23.426;2023-05-20T02:04:21;73938.91;;;-140.58;100.00
17309;BME280;8772;42.804;23.426;2023-05-20T02:06:48;73945.06;;;-140.58;100.00
17309;BME280;8772;42.804;23.426;2023-05-20T02:09:15;73940.94;;;-140.58;100.00
17309;BME280;8772;42.804;23.426;2023-05-20T02:11:43;73940.94;;;-140.58;100.00
17309;BME280;8772;42.804;23.426;2023-05-20T02:14:11;73953.25;;;-140.58;100.00
17309;BME280;8772;42.804;23.426;2023-05-20T02:16:38;73955.31;;;-140.58;100.00
17309;BME280;8772;42.804;23.426;2023-05-20T02:19:05;73965.56;;;-140.58;100.00
17309;BME280;8772;42.804;23.426;2023-05-20T02:21:37;73953.25;;;-140.58;100.00
17309;BME280;8772;42.804;23.426;2023-05-20T02:24:04;73965.56;;;-140.58;100.00
17309;BME280;8772;42.804;23.426;2023-05-20T02:26:31;73971.72;;;-140.58;100.00
17309;BME280;8772;42.804;23.426;2023-05-20T02:28:58;73947.09;;;-140.58;100.00
17309;BME280;8772;42.804;23.426;2023-05-20T02:31:27;73951.22;;;-140.58;100.00
17309;BME280;8772;42.804;23.426;2023-05-20T02:33:54;73959.41;;;-140.58;100.00
17309;BME280;8772;42.804;23.426;2023-05-20T02:36:20;73973.78;;;-140.58;100.00
17309;BME280;8772;42.804;23.426;2023-05-20T02:38:47;73971.72;;;-140.58;100.00
17309;BME280;8772;42.804;23.426;2023-05-20T02:41:15;73990.19;;;-140.58;100.00
17309;BME280;8772;42.804;23.426;2023-05-20T02:43:42;73971.72;;;-140.58;100.00
17309;BME280;8772;42.804;23.426;2023-05-20T02:46:10;73961.47;;;-140.58;100.00
17309;BME280;8772;42.804;23.426;2023-05-20T02:48:38;73961.47;;;-140.58;100.00
17309;BME280;8772;42.804;23.426;2023-05-20T02:51:05;73967.63;;;-140.58;100.00
17309;BME280;8772;42.804;23.426;2023-05-20T02:53:32;73961.47;;;-140.58;100.00
17309;BME280;8772;42.804;23.426;2023-05-20T02:55:58;73969.69;;;-140.58;100.00
17309;BME280;8772;42.804;23.426;2023-05-20T02:58:25;73990.19;;;-140.58;100.00
17309;BME280;8772;42.804;23.426;2023-05-20T03:00:53;73977.88;;;-140.58;100.00
17309;BME280;8772;42.804;23.426;2023-05-20T03:03:22;73986.09;;;-140.58;100.00
17309;BME280;8772;42.804;23.426;2023-05-20T03:05:51;74000.44;;;-140.58;100.00
17309;BME280;8772;42.804;23.426;2023-05-20T03:08:19;73994.28;;;-140.58;100.00
17309;BME280;8772;42.804;23.426;2023-05-20T03:10:47;73998.41;;;-140.58;100.00
17309;BME280;8772;42.804;23.426;2023-05-20T03:13:14;74018.91;;;-140.58;100.00
17309;BME280;8772;42.804;23.426;2023-05-20T03:15:41;74018.91;;;-140.58;100.00
17309;BME280;8772;42.804;23.426;2023-05-20T03:18:10;74023.00;;;-140.58;100.00
17309;BME280;8772;42.804;23.426;2023-05-20T03:20:38;74041.47;;;-140.58;100.00
17309;BME280;8772;42.804;23.426;2023-05-20T03:23:07;74055.84;;;-140.58;100.00
17309;BME280;8772;42.804;23.426;2023-05-20T03:25:35;74055.84;;;-140.58;100.00
17309;BME280;8772;42.804;23.426;2023-05-20T03:28:02;74039.44;;;-140.58;100.00
17309;BME280;8772;42.804;23.426;2023-05-20T03:30:30;74041.47;;;-140.58;100.00
17309;BME280;8772;42.804;23.426;2023-05-20T03:32:57;74047.63;;;-140.58;100.00
17309;BME280;8772;42.804;23.426;2023-05-20T03:35:25;74043.53;;;-140.58;100.00
17309;BME280;8772;42.804;23.426;2023-05-20T03:37:51;74047.63;;;-140.58;100.00
17309;BME280;8772;42.804;23.426;2023-05-20T03:40:20;74043.53;;;-140.58;100.00
17309;BME280;8772;42.804;23.426;2023-05-20T03:42:47;74035.31;;;-140.58;100.00
17309;BME280;8772;42.804;23.426;2023-05-20T03:45:15;74035.31;;;-140.58;100.00
17309;BME280;8772;42.804;23.426;2023-05-20T03:47:42;74051.75;;;-140.58;100.00
17309;BME280;8772;42.804;23.426;2023-05-20T03:50:09;74039.44;;;-140.58;100.00
17309;BME280;8772;42.804;23.426;2023-05-20T03:52:36;74035.31;;;-140.58;100.00
17309;BME280;8772;42.804;23.426;2023-05-20T03:55:05;74027.13;;;-140.58;100.00
17309;BME280;8772;42.804;23.426;2023-05-20T03:57:34;74014.81;;;-140.58;100.00
17309;BME280;8772;42.804;23.426;2023-05-20T04:00:02;74014.81;;;-140.58;100.00
17309;BME280;8772;42.804;23.426;2023-05-20T04:02:34;74008.66;;;-140.58;100.00
17309;BME280;8772;42.804;23.426;2023-05-20T04:05:01;73990.19;;;-140.58;100.00
17309;BME280;8772;42.804;23.426;2023-05-20T04:07:28;73977.88;;;-140.58;100.00
17309;BME280;8772;42.804;23.426;2023-05-20T04:09:55;73973.78;;;-140.58;100.00
17309;BME280;8772;42.804;23.426;2023-05-20T04:12:23;73969.69;;;-140.58;100.00
17309;BME280;8772;42.804;23.426;2023-05-20T04:14:56;73953.25;;;-140.58;100.00
17309;BME280;8772;42.804;23.426;2023-05-20T04:17:26;73953.25;;;-140.58;100.00
17309;BME280;8772;42.804;23.426;2023-05-20T04:19:54;73951.22;;;-140.58;100.00
17309;BME280;8772;42.804;23.426;2023-05-20T04:22:21;73940.94;;;-140.58;100.00
17309;BME280;8772;42.804;23.426;2023-05-20T04:24:48;73945.06;;;-140.58;100.00
17309;BME280;8772;42.804;23.426;2023-05-20T04:27:15;73936.84;;;-140.58;100.00
17309;BME280;8772;42.804;23.426;2023-05-20T04:29:42;73928.66;;;-140.58;100.00
17309;BME280;8772;42.804;23.426;2023-05-20T04:32:13;73916.34;;;-140.58;100.00
17309;BME280;8772;42.804;23.426;2023-05-20T04:34:40;73924.53;;;-140.58;100.00
17309;BME280;8772;42.804;23.426;2023-05-20T04:37:07;73908.13;;;-140.58;100.00
17309;BME280;8772;42.804;23.426;2023-05-20T04:39:34;73891.72;;;-140.58;100.00
17309;BME280;8772;42.804;23.426;2023-05-20T04:42:01;73897.88;;;-140.58;100.00
17309;BME280;8772;42.804;23.426;2023-05-20T04:44:29;73867.09;;;-140.58;100.00
17309;BME280;8772;42.804;23.426;2023-05-20T04:46:56;73867.09;;;-140.58;100.00
17309;BME280;8772;42.804;23.426;2023-05-20T04:49:25;73850.69;;;-140.58;100.00
17309;BME280;8772;42.804;23.426;2023-05-20T04:51:53;73840.44;;;-140.58;100.00
17309;BME280;8772;42.804;23.426;2023-05-20T04:54:20;73817.88;;;-140.58;100.00
17309;BME280;8772;42.804;23.426;2023-05-20T04:56:47;73809.66;;;-140.58;100.00
17309;BME280;8772;42.804;23.426;2023-05-20T04:59:15;73793.25;;;-140.58;100.00
17309;BME280;8772;42.804;23.426;2023-05-20T05:01:42;73783.00;;;-140.58;100.00
17309;BME280;8772;42.804;23.426;2023-05-20T05:04:09;73764.53;;;-140.58;100.00
17309;BME280;8772;42.804;23.426;2023-05-20T05:06:37;73739.91;;;-140.58;100.00
17309;BME280;8772;42.804;23.426;2023-05-20T05:09:04;73723.50;;;-140.58;100.00
17309;BME280;8772;42.804;23.426;2023-05-20T05:11:32;73702.97;;;-140.58;100.00
17309;BME280;8772;42.804;23.426;2023-05-20T05:13:59;73674.25;;;-140.58;100.00
17309;BME280;8772;42.804;23.426;2023-05-20T05:16:26;73647.59;;;-140.58;100.00
17309;BME280;8772;42.804;23.426;2023-05-20T05:18:53;73633.25;;;-140.58;100.00
17309;BME280;8772;42.804;23.426;2023-05-20T05:21:20;73608.63;;;-140.58;100.00
17309;BME280;8772;42.804;23.426;2023-05-20T05:23:48;73596.31;;;-140.58;100.00
17309;BME280;8772;42.804;23.426;2023-05-20T05:26:15;73575.81;;;-140.58;100.00
17309;BME280;8772;42.804;23.426;2023-05-20T05:28:42;73551.19;;;-140.58;100.00
17309;BME280;8772;42.804;23.426;2023-05-20T05:31:09;73545.03;;;-140.58;100.00
17309;BME280;8772;42.804;23.426;2023-05-20T05:33:35;73518.38;;;-140.58;100.00
17309;BME280;8772;42.804;23.426;2023-05-20T05:36:03;73506.06;;;-140.58;100.00
17309;BME280;8772;42.804;23.426;2023-05-20T05:38:31;73481.44;;;-140.58;100.00
17309;BME280;8772;42.804;23.426;2023-05-20T05:40:59;73469.13;;;-140.58;100.00
17309;BME280;8772;42.804;23.426;2023-05-20T05:43:26;73448.63;;;-140.58;100.00
17309;BME280;8772;42.804;23.426;2023-05-20T05:45:53;73421.97;;;-140.58;100.00
17309;BME280;8772;42.804;23.426;2023-05-20T05:48:20;73411.69;;;-140.58;100.00
17309;BME280;8772;42.804;23.426;2023-05-20T05:50:47;73397.34;;;-140.58;100.00
17309;BME280;8772;42.804;23.426;2023-05-20T05:53:14;73385.03;;;-140.58;100.00
17309;BME280;8772;42.804;23.426;2023-05-20T05:55:41;73372.72;;;-140.58;100.00
17309;BME280;8772;42.804;23.426;2023-05-20T05:58:09;73364.53;;;-140.58;100.00
17309;BME280;8772;42.804;23.426;2023-05-20T06:00:36;73348.13;;;-140.58;100.00
17309;BME280;8772;42.804;23.426;2023-05-20T06:03:03;73335.81;;;-140.58;100.00
17309;BME280;8772;42.804;23.426;2023-05-20T06:05:30;73337.84;;;-140.58;100.00
17309;BME280;8772;42.804;23.426;2023-05-20T06:07:57;73327.59;;;-140.58;100.00
17309;BME280;8772;42.804;23.426;2023-05-20T06:10:24;73313.25;;;-140.58;100.00
17309;BME280;8772;42.804;23.426;2023-05-20T06:12:51;73300.94;;;-140.58;100.00
17309;BME280;8772;42.804;23.426;2023-05-20T06:15:19;73280.44;;;-140.58;100.00
17309;BME280;8772;42.804;23.426;2023-05-20T06:17:46;73274.28;;;-140.58;100.00
17309;BME280;8772;42.804;23.426;2023-05-20T06:20:13;73270.16;;;-140.58;100.00
17309;BME280;8772;42.804;23.426;2023-05-20T06:22:40;73255.81;;;-140.58;100.00
17309;BME280;8772;42.804;23.426;2023-05-20T06:25:08;73255.81;;;-140.58;100.00
17309;BME280;8772;42.804;23.426;2023-05-20T06:27:35;73241.47;;;-140.58;100.00
17309;BME280;8772;42.804;23.426;2023-05-20T06:30:03;73231.19;;;-140.58;100.00
17309;BME280;8772;42.804;23.426;2023-05-20T06:32:31;73229.16;;;-140.58;100.00
17309;BME280;8772;42.804;23.426;2023-05-20T06:34:58;73214.78;;;-140.58;100.00
17309;BME280;8772;42.804;23.426;2023-05-20T06:37:25;73208.63;;;-140.58;100.00
17309;BME280;8772;42.804;23.426;2023-05-20T06:39:52;73181.97;;;-140.58;100.00
17309;BME280;8772;42.804;23.426;2023-05-20T06:42:19;73184.03;;;-140.58;100.00
17309;BME280;8772;42.804;23.426;2023-05-20T06:44:46;73196.34;;;-140.58;100.00
17309;BME280;8772;42.804;23.426;2023-05-20T06:47:15;73200.44;;;-140.58;100.00
17309;BME280;8772;42.804;23.426;2023-05-20T06:49:43;73179.91;;;-140.58;100.00
17309;BME280;8772;42.804;23.426;2023-05-20T06:52:10;73165.56;;;-140.58;100.00
17309;BME280;8772;42.804;23.426;2023-05-20T06:54:37;73151.22;;;-140.58;100.00
17309;BME280;8772;42.804;23.426;2023-05-20T06:57:06;73143.00;;;-140.58;100.00
17309;BME280;8772;42.804;23.426;2023-05-20T06:59:33;73132.75;;;-140.58;100.00
17309;BME280;8772;42.804;23.426;2023-05-20T07:02:00;73122.50;;;-140.58;100.00
17309;BME280;8772;42.804;23.426;2023-05-20T07:04:27;73116.34;;;-140.58;100.00
17309;BME280;8772;42.804;23.426;2023-05-20T07:06:56;73099.94;;;-140.58;100.00
17309;BME280;8772;42.804;23.426;2023-05-20T07:09:23;73091.72;;;-140.58;100.00
17309;BME280;8772;42.804;23.426;2023-05-20T07:11:50;73083.53;;;-140.58;100.00
17309;BME280;8772;42.804;23.426;2023-05-20T07:14:17;73067.13;;;-140.58;100.00
17309;BME280;8772;42.804;23.426;2023-05-20T07:16:43;73050.72;;;-140.58;100.00
17309;BME280;8772;42.804;23.426;2023-05-20T07:19:10;73032.25;;;-140.58;100.00
17309;BME280;8772;42.804;23.426;2023-05-20T07:21:37;73024.03;;;-140.58;99.99
17309;BME280;8772;42.804;23.426;2023-05-20T07:24:06;73017.91;;;-140.58;91.23
17309;BME280;8772;42.804;23.426;2023-05-20T07:26:32;73001.47;;;-140.58;87.26
17309;BME280;8772;42.804;23.426;2023-05-20T07:29:01;72991.22;;;-140.58;86.96
17309;BME280;8772;42.804;23.426;2023-05-20T07:31:28;72972.78;;;-140.58;95.31
17309;BME280;8772;42.804;23.426;2023-05-20T07:33:56;72972.78;;;-140.58;90.81
17309;BME280;8772;42.804;23.426;2023-05-20T07:36:25;72964.56;;;-140.58;78.15
17309;BME280;8772;42.804;23.426;2023-05-20T07:38:52;72958.41;;;-140.58;67.70
17309;BME280;8772;42.804;23.426;2023-05-20T07:41:20;72956.38;;;-140.58;68.76
17309;BME280;8772;42.804;23.426;2023-05-20T07:43:47;72931.75;;;-140.58;73.59
17309;BME280;8772;42.804;23.426;2023-05-20T07:46:14;72919.44;;;-140.58;67.51
17309;BME280;8772;42.804;23.426;2023-05-20T07:48:41;72909.19;;;-140.58;65.88
17309;BME280;8772;42.804;23.426;2023-05-20T07:51:09;72907.13;;;-140.58;66.99
17309;BME280;8772;42.804;23.426;2023-05-20T07:53:36;72939.97;;;-140.58;64.42
17309;BME280;8772;42.804;23.426;2023-05-20T07:56:03;72923.56;;;-140.58;64.68
17309;BME280;8772;42.804;23.426;2023-05-20T07:58:31;72907.13;;;-140.58;66.08
17309;BME280;8772;42.804;23.426;2023-05-20T08:00:58;72903.03;;;-140.58;66.25
17309;BME280;8772;42.804;23.426;2023-05-20T08:03:25;72874.31;;;-140.58;60.42
17309;BME280;8772;42.804;23.426;2023-05-20T08:05:52;72849.72;;;-140.58;62.76
17309;BME280;8772;42.804;23.426;2023-05-20T08:08:19;72845.63;;;-140.58;57.25
17309;BME280;8772;42.804;23.426;2023-05-20T08:10:46;72841.50;;;-140.58;58.97
17309;BME280;8772;42.804;23.426;2023-05-20T08:13:13;72839.47;;;-140.58;59.23
17309;BME280;8772;42.804;23.426;2023-05-20T08:15:41;72837.41;;;-140.58;52.62
17309;BME280;8772;42.804;23.426;2023-05-20T08:18:08;72862.03;;;-140.58;54.23
17309;BME280;8772;42.804;23.426;2023-05-20T08:20:35;72837.41;;;-140.58;53.26
17309;BME280;8772;42.804;23.426;2023-05-20T08:23:02;72827.16;;;-140.58;61.47
17309;BME280;8772;42.804;23.426;2023-05-20T08:25:29;72821.00;;;-140.58;54.03
17309;BME280;8772;42.804;23.426;2023-05-20T08:27:55;72821.00;;;-140.58;53.91
17309;BME280;8772;42.804;23.426;2023-05-20T08:30:22;72821.00;;;-140.58;51.43
17309;BME280;8772;42.804;23.426;2023-05-20T08:32:51;72816.91;;;-140.58;53.13
17309;BME280;8772;42.804;23.426;2023-05-20T08:35:17;72771.78;;;-140.58;57.10
17309;BME280;8772;42.804;23.426;2023-05-20T08:37:44;72751.28;;;-140.58;52.92
17309;BME280;8772;42.804;23.426;2023-05-20T08:40:12;72738.97;;;-140.58;51.32
17309;BME280;8772;42.804;23.426;2023-05-20T08:42:41;72743.06;;;-140.58;52.37
17309;BME280;8772;42.804;23.426;2023-05-20T08:45:10;72738.97;;;-140.58;48.92
17309;BME280;8772;42.804;23.426;2023-05-20T08:47:40;72738.97;;;-140.58;49.88
17309;BME280;8772;42.804;23.426;2023-05-20T08:50:10;72724.63;;;-140.58;50.36
17309;BME280;8772;42.804;23.426;2023-05-20T08:52:41;72706.16;;;-140.58;50.14
17309;BME280;8772;42.804;23.426;2023-05-20T08:55:13;72714.34;;;-140.58;48.56
17309;BME280;8772;42.804;23.426;2023-05-20T08:57:41;72722.56;;;-140.58;48.67
17309;BME280;8772;42.804;23.426;2023-05-20T09:00:12;72718.47;;;-140.58;49.20
17309;BME280;8772;42.804;23.426;2023-05-20T09:02:41;72710.25;;;-140.58;49.80
17309;BME280;8772;42.804;23.426;2023-05-20T09:05:10;72673.34;;;-140.58;52.20
17309;BME280;8772;42.804;23.426;2023-05-20T09:07:38;72650.78;;;-140.58;51.38
17309;BME280;8772;42.804;23.426;2023-05-20T09:10:07;72632.34;;;-140.58;50.56
17309;BME280;8772;42.804;23.426;2023-05-20T09:12:35;72587.22;;;-140.58;50.49
17309;BME280;8772;42.804;23.426;2023-05-20T09:15:02;72570.81;;;-140.58;48.59
17309;BME280;8772;42.804;23.426;2023-05-20T09:17:29;72587.22;;;-140.58;48.27
17309;BME280;8772;42.804;23.426;2023-05-20T09:19:56;72554.41;;;-140.58;46.24
17309;BME280;8772;42.804;23.426;2023-05-20T09:22:25;72591.31;;;-140.58;47.46
17309;BME280;8772;42.804;23.426;2023-05-20T09:24:53;72607.72;;;-140.58;46.87
17309;BME280;8772;42.804;23.426;2023-05-20T09:27:20;72636.44;;;-140.58;48.12
17309;BME280;8772;42.804;23.426;2023-05-20T09:29:48;72648.72;;;-140.58;48.43
17309;BME280;8772;42.804;23.426;2023-05-20T09:32:15;72640.53;;;-140.58;48.72
17309;BME280;8772;42.804;23.426;2023-05-20T09:34:42;72609.78;;;-140.58;52.74
17309;BME280;8772;42.804;23.426;2023-05-20T09:37:10;72581.06;;;-140.58;48.16
17309;BME280;8772;42.804;23.426;2023-05-20T09:39:55;72585.16;;;-140.58;46.28
17309;BME280;8772;42.804;23.426;2023-05-20T09:42:27;72562.59;;;-140.58;47.42
17309;BME280;8772;42.804;23.426;2023-05-20T09:44:57;72533.91;;;-140.58;48.26
17309;BME280;8772;42.804;23.426;2023-05-20T09:47:24;72509.28;;;-140.58;46.51
17309;BME280;8772;42.804;23.426;2023-05-20T09:49:52;72533.91;;;-140.58;45.62
17309;BME280;8772;42.804;23.426;2023-05-20T09:52:19;72525.69;;;-140.58;44.00
17309;BME280;8772;42.804;23.426;2023-05-20T09:54:48;72538.00;;;-140.58;44.46
17309;BME280;8772;42.804;23.426;2023-05-20T09:57:16;72496.97;;;-140.58;45.93
17309;BME280;8772;42.804;23.426;2023-05-20T09:59:45;72472.38;;;-140.58;46.32
17309;BME280;8772;42.804;23.426;2023-05-20T10:02:13;72435.47;;;-140.58;45.43
17309;BME280;8772;42.804;23.426;2023-05-20T10:04:43;72388.31;;;-140.58;43.23
17309;BME280;8772;42.804;23.426;2023-05-20T10:07:27;72404.72;;;-140.58;40.60
17309;BME280;8772;42.804;23.426;2023-05-20T10:10:13;72371.91;;;-140.58;43.15
17309;BME280;8772;42.804;23.426;2023-05-20T10:12:52;72324.72;;;-140.58;43.50
17309;BME280;8772;42.804;23.426;2023-05-20T10:15:26;72289.88;;;-140.58;42.80
17309;BME280;8772;42.804;23.426;2023-05-20T10:18:00;72326.78;;;-140.58;40.15
17309;BME280;8772;42.804;23.426;2023-05-20T10:20:31;72332.94;;;-140.58;40.59
17309;BME280;8772;42.804;23.426;2023-05-20T10:22:58;72271.41;;;-140.58;38.79
17309;BME280;8772;42.804;23.426;2023-05-20T10:25:27;72275.53;;;-140.58;40.50
17309;BME280;8772;42.804;23.426;2023-05-20T10:28:04;72216.06;;;-140.58;45.44
17309;BME280;8772;42.804;23.426;2023-05-20T10:30:33;72209.91;;;-140.58;40.43
17309;BME280;8772;42.804;23.426;2023-05-20T10:33:03;72207.84;;;-140.58;38.80
17309;BME280;8772;42.804;23.426;2023-05-20T10:35:31;72181.19;;;-140.58;38.90
17309;BME280;8772;42.804;23.426;2023-05-20T10:38:07;72152.50;;;-140.58;38.17
17309;BME280;8772;42.804;23.426;2023-05-20T10:40:36;72179.16;;;-140.58;40.20
17309;BME280;8772;42.804;23.426;2023-05-20T10:43:09;72162.75;;;-140.58;40.45
17309;BME280;8772;42.804;23.426;2023-05-20T10:45:47;72222.22;;;-140.58;39.26
17309;BME280;8772;42.804;23.426;2023-05-20T10:48:20;72263.22;;;-140.58;42.20
17309;BME280;8772;42.804;23.426;2023-05-20T10:50:47;72259.13;;;-140.58;42.81
17309;BME280;8772;42.804;23.426;2023-05-20T10:53:14;72283.72;;;-140.58;43.08
17309;BME280;8772;42.804;23.426;2023-05-20T10:55:49;72205.81;;;-140.58;41.85
17309;BME280;8772;42.804;23.426;2023-05-20T10:58:17;72296.03;;;-140.58;39.42
17309;BME280;8772;42.804;23.426;2023-05-20T11:00:46;72291.94;;;-140.58;38.59
17309;BME280;8772;42.804;23.426;2023-05-20T11:03:14;72273.47;;;-140.58;40.54
17309;BME280;8772;42.804;23.426;2023-05-20T11:05:43;72283.72;;;-140.58;40.81
17309;BME280;8772;42.804;23.426;2023-05-20T11:08:11;72283.72;;;-140.58;40.53
17309;BME280;8772;42.804;23.426;2023-05-20T11:10:38;72316.53;;;-140.58;40.99
17309;BME280;8772;42.804;23.426;2023-05-20T11:13:06;72312.44;;;-140.58;40.92
17309;BME280;8772;42.804;23.426;2023-05-20T11:15:34;72341.13;;;-140.58;40.29
17309;BME280;8772;42.804;23.426;2023-05-20T11:18:02;72337.03;;;-140.58;42.18
17309;BME280;8772;42.804;23.426;2023-05-20T11:20:30;72304.22;;;-140.58;41.34
17309;BME280;8772;42.804;23.426;2023-05-20T11:23:00;72287.81;;;-140.58;39.55
17309;BME280;8772;42.804;23.426;2023-05-20T11:25:27;72222.22;;;-140.58;40.56
17309;BME280;8772;42.804;23.426;2023-05-20T11:27:54;72236.56;;;-140.58;39.97
17309;BME280;8772;42.804;23.426;2023-05-20T11:30:23;72234.50;;;-140.58;40.68
17309;BME280;8772;42.804;23.426;2023-05-20T11:32:57;72257.06;;;-140.58;39.17
17309;BME280;8772;42.804;23.426;2023-05-20T11:35:25;72211.97;;;-140.58;41.87
17309;BME280;8772;42.804;23.426;2023-05-20T11:37:55;72234.50;;;-140.58;39.18
17309;BME280;8772;42.804;23.426;2023-05-20T11:40:23;72220.16;;;-140.58;40.65
17309;BME280;8772;42.804;23.426;2023-05-20T11:42:53;72226.31;;;-140.58;38.63
17309;BME280;8772;42.804;23.426;2023-05-20T11:45:20;72218.09;;;-140.58;41.57
17309;BME280;8772;42.804;23.426;2023-05-20T11:47:59;72203.75;;;-140.58;40.04
17309;BME280;8772;42.804;23.426;2023-05-20T11:50:27;72214.00;;;-140.58;40.74
17309;BME280;8772;42.804;23.426;2023-05-20T11:52:56;72226.31;;;-140.58;39.80
17309;BME280;8772;42.804;23.426;2023-05-20T11:55:24;72224.25;;;-140.58;39.57
17309;BME280;8772;42.804;23.426;2023-05-20T11:57:51;72267.31;;;-140.58;40.07
17309;BME280;8772;42.804;23.426;2023-05-20T12:00:18;72257.06;;;-140.58;40.15
17309;BME280;8772;42.804;23.426;2023-05-20T12:02:46;72234.50;;;-140.58;41.30
17309;BME280;8772;42.804;23.426;2023-05-20T12:05:14;72236.56;;;-140.58;40.56
17309;BME280;8772;42.804;23.426;2023-05-20T12:07:41;72222.22;;;-140.58;40.75
17309;BME280;8772;42.804;23.426;2023-05-20T12:10:08;72181.19;;;-140.58;39.47
17309;BME280;8772;42.804;23.426;2023-05-20T12:12:35;72222.22;;;-140.58;40.00
17309;BME280;8772;42.804;23.426;2023-05-20T12:15:03;72242.72;;;-140.58;40.15
17309;BME280;8772;42.804;23.426;2023-05-20T12:17:31;72289.88;;;-140.58;39.51
17309;BME280;8772;42.804;23.426;2023-05-20T12:19:58;72279.63;;;-140.58;40.49
17309;BME280;8772;42.804;23.426;2023-05-20T12:22:26;72275.53;;;-140.58;41.23
17309;BME280;8772;42.804;23.426;2023-05-20T12:24:53;72316.53;;;-140.58;40.70
17309;BME280;8772;42.804;23.426;2023-05-20T12:27:20;72345.25;;;-140.58;42.90
17309;BME280;8772;42.804;23.426;2023-05-20T12:29:47;72396.50;;;-140.58;38.71
17309;BME280;8772;42.804;23.426;2023-05-20T12:32:14;72447.78;;;-140.58;40.02
17309;BME280;8772;42.804;23.426;2023-05-20T12:34:41;72488.78;;;-140.58;39.12
17309;BME280;8772;42.804;23.426;2023-05-20T12:37:07;72501.09;;;-140.58;40.80
17309;BME280;8772;42.804;23.426;2023-05-20T12:39:36;72527.75;;;-140.58;41.00
17309;BME280;8772;42.804;23.426;2023-05-20T12:42:03;72574.91;;;-140.58;42.27